sensor_id;sensor_type;location;lat;lon;timestamp;pressure;altitude;pressure_sealevel;temperature;humidity
22020;BME280;51298;53.362;-1.518;2023-10-31T00:01:49;97680.13;;;7.61;89.31
22020;BME280;51298;53.362;-1.518;2023-10-31T00:04:38;97684.88;;;7.57;89.14
22020;BME280;51298;53.362;-1.518;2023-10-31T00:07:27;97685.03;;;7.56;89.12
22020;BME280;51298;53.362;-1.518;2023-10-31T00:10:19;97693.13;;;7.61;89.09
22020;BME280;51298;53.362;-1.518;2023-10-31T00:13:08;97687.72;;;7.77;88.80
22020;BME280;51298;53.362;-1.518;2023-10-31T00:15:58;97700.16;;;7.67;88.39
22020;BME280;51298;53.362;-1.518;2023-10-31T00:18:47;97703.03;;;7.72;88.61
22020;BME280;51298;53.362;-1.518;2023-10-31T00:21:36;97700.25;;;7.59;88.49
22020;BME280;51298;53.362;-1.518;2023-10-31T00:24:25;97703.66;;;7.59;88.81
22020;BME280;51298;53.362;-1.518;2023-10-31T00:27:14;97698.22;;;7.54;88.84
22020;BME280;51298;53.362;-1.518;2023-10-31T00:30:05;97699.00;;;7.55;88.99
22020;BME280;51298;53.362;-1.518;2023-10-31T00:32:54;97699.47;;;7.58;89.09
22020;BME280;51298;53.362;-1.518;2023-10-31T00:35:43;97695.63;;;7.69;88.89
22020;BME280;51298;53.362;-1.518;2023-10-31T00:38:33;97691.22;;;7.55;88.71
22020;BME280;51298;53.362;-1.518;2023-10-31T00:41:22;97683.31;;;7.48;89.08
22020;BME280;51298;53.362;-1.518;2023-10-31T00:44:11;97686.91;;;7.47;88.94
22020;BME280;51298;53.362;-1.518;2023-10-31T00:47:03;97688.16;;;7.51;89.16
22020;BME280;51298;53.362;-1.518;2023-10-31T00:49:55;97681.44;;;7.57;89.36
22020;BME280;51298;53.362;-1.518;2023-10-31T00:52:45;97687.19;;;7.52;89.12
22020;BME280;51298;53.362;-1.518;2023-10-31T00:55:35;97684.78;;;7.51;88.93
22020;BME280;51298;53.362;-1.518;2023-10-31T00:58:24;97685.56;;;7.51;88.79
22020;BME280;51298;53.362;-1.518;2023-10-31T01:01:14;97685.56;;;7.51;89.10
22020;BME280;51298;53.362;-1.518;2023-10-31T01:04:04;97687.81;;;7.69;88.97
22020;BME280;51298;53.362;-1.518;2023-10-31T01:06:53;97691.94;;;7.64;88.70
22020;BME280;51298;53.362;-1.518;2023-10-31T01:09:43;97692.13;;;7.47;88.95
22020;BME280;51298;53.362;-1.518;2023-10-31T01:12:34;97692.38;;;7.52;89.18
22020;BME280;51298;53.362;-1.518;2023-10-31T01:15:24;97688.28;;;7.58;89.03
22020;BME280;51298;53.362;-1.518;2023-10-31T01:18:14;97685.13;;;7.63;89.10
22020;BME280;51298;53.362;-1.518;2023-10-31T01:21:03;97686.47;;;7.58;88.94
22020;BME280;51298;53.362;-1.518;2023-10-31T01:23:54;97693.72;;;7.63;88.83
22020;BME280;51298;53.362;-1.518;2023-10-31T01:26:43;97687.09;;;7.61;88.96
22020;BME280;51298;53.362;-1.518;2023-10-31T01:29:32;97687.19;;;7.52;89.13
22020;BME280;51298;53.362;-1.518;2023-10-31T01:32:21;97684.56;;;7.52;89.54
22020;BME280;51298;53.362;-1.518;2023-10-31T01:35:10;97692.13;;;7.47;89.47
22020;BME280;51298;53.362;-1.518;2023-10-31T01:37:59;97688.88;;;7.60;89.44
22020;BME280;51298;53.362;-1.518;2023-10-31T01:40:48;97695.41;;;7.41;89.56
22020;BME280;51298;53.362;-1.518;2023-10-31T01:43:39;97704.47;;;7.45;89.75
22020;BME280;51298;53.362;-1.518;2023-10-31T01:46:28;97708.84;;;7.45;89.62
22020;BME280;51298;53.362;-1.518;2023-10-31T01:49:17;97709.84;;;7.44;89.54
22020;BME280;51298;53.362;-1.518;2023-10-31T01:52:06;97709.94;;;7.50;89.55
22020;BME280;51298;53.362;-1.518;2023-10-31T01:54:56;97713.06;;;7.61;89.38
22020;BME280;51298;53.362;-1.518;2023-10-31T01:57:45;97722.56;;;7.68;89.45
22020;BME280;51298;53.362;-1.518;2023-10-31T02:00:36;97728.84;;;7.74;88.99
22020;BME280;51298;53.362;-1.518;2023-10-31T02:03:28;97729.47;;;7.76;88.84
22020;BME280;51298;53.362;-1.518;2023-10-31T02:06:17;97717.75;;;7.65;88.92
22020;BME280;51298;53.362;-1.518;2023-10-31T02:09:07;97727.41;;;7.56;89.07
22020;BME280;51298;53.362;-1.518;2023-10-31T02:11:56;97711.66;;;7.73;88.38
22020;BME280;51298;53.362;-1.518;2023-10-31T02:14:45;97708.06;;;7.59;88.42
22020;BME280;51298;53.362;-1.518;2023-10-31T02:17:34;97708.41;;;7.56;88.93
22020;BME280;51298;53.362;-1.518;2023-10-31T02:20:23;97705.72;;;7.34;89.23
22020;BME280;51298;53.362;-1.518;2023-10-31T02:23:13;97707.34;;;7.50;89.54
22020;BME280;51298;53.362;-1.518;2023-10-31T02:26:04;97709.41;;;7.55;89.27
22020;BME280;51298;53.362;-1.518;2023-10-31T02:28:53;97706.00;;;7.54;89.02
22020;BME280;51298;53.362;-1.518;2023-10-31T02:31:42;97699.38;;;7.52;89.38
22020;BME280;51298;53.362;-1.518;2023-10-31T02:34:32;97696.50;;;7.47;89.51
22020;BME280;51298;53.362;-1.518;2023-10-31T02:37:23;97687.81;;;7.40;89.47
22020;BME280;51298;53.362;-1.518;2023-10-31T02:40:12;97689.41;;;7.41;89.36
22020;BME280;51298;53.362;-1.518;2023-10-31T02:43:04;97689.75;;;7.38;89.72
22020;BME280;51298;53.362;-1.518;2023-10-31T02:45:53;97696.97;;;7.50;89.48
22020;BME280;51298;53.362;-1.518;2023-10-31T02:48:41;97691.47;;;7.45;89.36
22020;BME280;51298;53.362;-1.518;2023-10-31T02:51:32;97683.97;;;7.36;89.75
22020;BME280;51298;53.362;-1.518;2023-10-31T02:54:21;97685.47;;;7.30;89.92
22020;BME280;51298;53.362;-1.518;2023-10-31T02:57:10;97693.25;;;7.45;89.86
22020;BME280;51298;53.362;-1.518;2023-10-31T02:59:59;97684.56;;;7.38;89.81
22020;BME280;51298;53.362;-1.518;2023-10-31T03:02:48;97692.47;;;7.44;89.77
22020;BME280;51298;53.362;-1.518;2023-10-31T03:05:37;97696.97;;;7.50;89.50
22020;BME280;51298;53.362;-1.518;2023-10-31T03:08:26;97692.91;;;7.48;89.29
22020;BME280;51298;53.362;-1.518;2023-10-31T03:11:26;97702.94;;;7.36;89.36
22020;BME280;51298;53.362;-1.518;2023-10-31T03:14:15;97703.38;;;7.40;89.50
22020;BME280;51298;53.362;-1.518;2023-10-31T03:17:04;97701.22;;;7.28;89.94
22020;BME280;51298;53.362;-1.518;2023-10-31T03:19:56;97698.66;;;7.43;89.48
22020;BME280;51298;53.362;-1.518;2023-10-31T03:22:45;97705.88;;;7.33;89.03
22020;BME280;51298;53.362;-1.518;2023-10-31T03:25:34;97697.19;;;7.26;89.18
22020;BME280;51298;53.362;-1.518;2023-10-31T03:28:24;97690.41;;;7.40;89.29
22020;BME280;51298;53.362;-1.518;2023-10-31T03:31:13;97694.72;;;7.47;89.22
22020;BME280;51298;53.362;-1.518;2023-10-31T03:34:03;97695.69;;;7.46;89.04
22020;BME280;51298;53.362;-1.518;2023-10-31T03:36:52;97686.38;;;7.52;88.83
22020;BME280;51298;53.362;-1.518;2023-10-31T03:39:41;97693.63;;;7.42;89.10
22020;BME280;51298;53.362;-1.518;2023-10-31T03:42:30;97689.69;;;7.46;89.22
22020;BME280;51298;53.362;-1.518;2023-10-31T03:45:24;97681.63;;;7.55;88.84
22020;BME280;51298;53.362;-1.518;2023-10-31T03:48:13;97690.66;;;7.45;88.97
22020;BME280;51298;53.362;-1.518;2023-10-31T03:51:03;97682.50;;;7.33;89.38
22020;BME280;51298;53.362;-1.518;2023-10-31T03:53:52;97683.13;;;7.20;89.76
22020;BME280;51298;53.362;-1.518;2023-10-31T03:56:41;97687.78;;;7.25;90.02
22020;BME280;51298;53.362;-1.518;2023-10-31T03:59:31;97696.75;;;7.37;89.69
22020;BME280;51298;53.362;-1.518;2023-10-31T04:02:24;97687.63;;;7.41;89.53
22020;BME280;51298;53.362;-1.518;2023-10-31T04:05:12;97694.44;;;7.27;89.44
22020;BME280;51298;53.362;-1.518;2023-10-31T04:08:04;97696.56;;;7.24;89.76
22020;BME280;51298;53.362;-1.518;2023-10-31T04:10:53;97692.63;;;7.28;89.77
22020;BME280;51298;53.362;-1.518;2023-10-31T04:13:43;97695.84;;;7.30;89.71
22020;BME280;51298;53.362;-1.518;2023-10-31T04:16:37;97695.06;;;7.44;89.36
22020;BME280;51298;53.362;-1.518;2023-10-31T04:19:26;97690.50;;;7.46;89.37
22020;BME280;51298;53.362;-1.518;2023-10-31T04:22:15;97688.88;;;7.60;89.39
22020;BME280;51298;53.362;-1.518;2023-10-31T04:25:04;97679.94;;;7.63;88.73
22020;BME280;51298;53.362;-1.518;2023-10-31T04:27:53;97679.22;;;7.39;88.98
22020;BME280;51298;53.362;-1.518;2023-10-31T04:30:42;97673.13;;;7.32;89.66
22020;BME280;51298;53.362;-1.518;2023-10-31T04:33:32;97682.97;;;7.51;89.32
22020;BME280;51298;53.362;-1.518;2023-10-31T04:36:21;97679.22;;;7.39;89.13
22020;BME280;51298;53.362;-1.518;2023-10-31T04:39:10;97683.97;;;7.36;89.23
22020;BME280;51298;53.362;-1.518;2023-10-31T04:41:59;97688.16;;;7.51;89.60
22020;BME280;51298;53.362;-1.518;2023-10-31T04:44:48;97689.16;;;7.36;89.33
22020;BME280;51298;53.362;-1.518;2023-10-31T04:47:37;97693.25;;;7.45;88.86
22020;BME280;51298;53.362;-1.518;2023-10-31T04:50:26;97703.59;;;7.38;89.24
22020;BME280;51298;53.362;-1.518;2023-10-31T04:53:15;97701.94;;;7.37;89.06
22020;BME280;51298;53.362;-1.518;2023-10-31T04:56:04;97700.69;;;7.33;89.22
22020;BME280;51298;53.362;-1.518;2023-10-31T04:58:53;97702.28;;;7.34;89.26
22020;BME280;51298;53.362;-1.518;2023-10-31T05:01:47;97706.19;;;7.38;88.87
22020;BME280;51298;53.362;-1.518;2023-10-31T05:04:39;97714.78;;;7.39;89.30
22020;BME280;51298;53.362;-1.518;2023-10-31T05:07:32;97707.97;;;7.52;88.45
22020;BME280;51298;53.362;-1.518;2023-10-31T05:10:21;97706.00;;;7.54;88.01
22020;BME280;51298;53.362;-1.518;2023-10-31T05:13:10;97714.59;;;7.55;87.98
22020;BME280;51298;53.362;-1.518;2023-10-31T05:16:00;97718.34;;;7.38;88.13
22020;BME280;51298;53.362;-1.518;2023-10-31T05:18:52;97726.06;;;7.31;89.00
22020;BME280;51298;53.362;-1.518;2023-10-31T05:21:41;97720.47;;;7.34;89.13
22020;BME280;51298;53.362;-1.518;2023-10-31T05:24:30;97717.06;;;7.33;89.13
22020;BME280;51298;53.362;-1.518;2023-10-31T05:27:21;97713.44;;;7.43;88.56
22020;BME280;51298;53.362;-1.518;2023-10-31T05:30:10;97714.47;;;7.33;89.25
22020;BME280;51298;53.362;-1.518;2023-10-31T05:33:04;97722.19;;;7.27;88.83
22020;BME280;51298;53.362;-1.518;2023-10-31T05:35:53;97724.41;;;7.30;89.00
22020;BME280;51298;53.362;-1.518;2023-10-31T05:38:42;97718.06;;;7.32;88.74
22020;BME280;51298;53.362;-1.518;2023-10-31T05:41:35;97717.72;;;7.36;88.77
22020;BME280;51298;53.362;-1.518;2023-10-31T05:44:25;97720.75;;;7.24;89.29
22020;BME280;51298;53.362;-1.518;2023-10-31T05:47:14;97718.94;;;7.25;89.04
22020;BME280;51298;53.362;-1.518;2023-10-31T05:50:04;97725.59;;;7.27;89.37
22020;BME280;51298;53.362;-1.518;2023-10-31T05:52:54;97727.19;;;7.28;88.98
22020;BME280;51298;53.362;-1.518;2023-10-31T05:55:43;97729.00;;;7.28;89.37
22020;BME280;51298;53.362;-1.518;2023-10-31T05:58:34;97722.66;;;7.30;89.09
22020;BME280;51298;53.362;-1.518;2023-10-31T06:01:23;97726.59;;;7.41;88.39
22020;BME280;51298;53.362;-1.518;2023-10-31T06:04:12;97724.25;;;7.31;88.96
22020;BME280;51298;53.362;-1.518;2023-10-31T06:07:04;97721.69;;;7.46;89.01
22020;BME280;51298;53.362;-1.518;2023-10-31T06:09:54;97721.31;;;7.49;88.85
22020;BME280;51298;53.362;-1.518;2023-10-31T06:12:43;97725.25;;;7.45;88.81
22020;BME280;51298;53.362;-1.518;2023-10-31T06:15:32;97733.31;;;7.36;89.24
22020;BME280;51298;53.362;-1.518;2023-10-31T06:18:21;97728.56;;;7.39;89.27
22020;BME280;51298;53.362;-1.518;2023-10-31T06:21:10;97728.72;;;7.38;89.28
22020;BME280;51298;53.362;-1.518;2023-10-31T06:23:59;97727.84;;;7.60;88.60
22020;BME280;51298;53.362;-1.518;2023-10-31T06:26:56;97728.13;;;7.50;88.69
22020;BME280;51298;53.362;-1.518;2023-10-31T06:29:45;97719.53;;;7.50;88.82
22020;BME280;51298;53.362;-1.518;2023-10-31T06:32:34;97723.03;;;7.42;89.15
22020;BME280;51298;53.362;-1.518;2023-10-31T06:35:24;97732.06;;;7.46;89.19
22020;BME280;51298;53.362;-1.518;2023-10-31T06:38:13;97732.03;;;7.31;89.25
22020;BME280;51298;53.362;-1.518;2023-10-31T06:41:03;97736.00;;;7.42;89.04
22020;BME280;51298;53.362;-1.518;2023-10-31T06:43:53;97738.09;;;7.62;88.65
22020;BME280;51298;53.362;-1.518;2023-10-31T06:46:55;97738.06;;;7.47;88.38
22020;BME280;51298;53.362;-1.518;2023-10-31T06:49:45;97742.28;;;7.48;88.73
22020;BME280;51298;53.362;-1.518;2023-10-31T06:52:34;97741.72;;;7.38;88.87
22020;BME280;51298;53.362;-1.518;2023-10-31T06:55:27;97748.53;;;7.39;89.02
22020;BME280;51298;53.362;-1.518;2023-10-31T06:58:16;97751.72;;;7.26;89.38
22020;BME280;51298;53.362;-1.518;2023-10-31T07:01:06;97757.28;;;7.38;89.49
22020;BME280;51298;53.362;-1.518;2023-10-31T07:03:58;97758.97;;;7.53;89.48
22020;BME280;51298;53.362;-1.518;2023-10-31T07:06:48;97763.53;;;7.66;88.53
22020;BME280;51298;53.362;-1.518;2023-10-31T07:09:38;97762.72;;;7.66;88.35
22020;BME280;51298;53.362;-1.518;2023-10-31T07:12:27;97767.44;;;7.47;88.47
22020;BME280;51298;53.362;-1.518;2023-10-31T07:15:17;97767.38;;;7.55;88.29
22020;BME280;51298;53.362;-1.518;2023-10-31T07:18:06;97771.75;;;7.55;88.69
22020;BME280;51298;53.362;-1.518;2023-10-31T07:20:58;97768.69;;;7.51;89.04
22020;BME280;51298;53.362;-1.518;2023-10-31T07:23:47;97767.91;;;7.51;88.98
22020;BME280;51298;53.362;-1.518;2023-10-31T07:29:28;97771.22;;;7.59;89.08
22020;BME280;51298;53.362;-1.518;2023-10-31T07:32:17;97774.34;;;7.55;88.90
22020;BME280;51298;53.362;-1.518;2023-10-31T07:35:07;97777.94;;;7.54;88.89
22020;BME280;51298;53.362;-1.518;2023-10-31T07:38:06;97777.84;;;7.47;88.98
22020;BME280;51298;53.362;-1.518;2023-10-31T07:40:55;97782.75;;;7.57;88.57
22020;BME280;51298;53.362;-1.518;2023-10-31T07:43:44;97788.72;;;7.66;88.79
22020;BME280;51298;53.362;-1.518;2023-10-31T07:46:37;97788.78;;;7.57;88.81
22020;BME280;51298;53.362;-1.518;2023-10-31T07:49:26;97791.78;;;7.84;88.89
22020;BME280;51298;53.362;-1.518;2023-10-31T07:52:16;97790.97;;;7.69;88.46
22020;BME280;51298;53.362;-1.518;2023-10-31T07:55:04;97794.72;;;7.66;88.39
22020;BME280;51298;53.362;-1.518;2023-10-31T07:57:54;97796.97;;;7.69;88.56
22020;BME280;51298;53.362;-1.518;2023-10-31T08:00:43;97800.59;;;7.60;89.06
22020;BME280;51298;53.362;-1.518;2023-10-31T08:03:32;97805.09;;;7.66;89.03
22020;BME280;51298;53.362;-1.518;2023-10-31T08:06:21;97807.50;;;7.68;88.92
22020;BME280;51298;53.362;-1.518;2023-10-31T08:09:10;97802.06;;;7.77;89.08
22020;BME280;51298;53.362;-1.518;2023-10-31T08:11:59;97808.72;;;7.95;88.18
22020;BME280;51298;53.362;-1.518;2023-10-31T08:14:49;97809.69;;;7.79;88.24
22020;BME280;51298;53.362;-1.518;2023-10-31T08:17:37;97805.38;;;7.86;88.26
22020;BME280;51298;53.362;-1.518;2023-10-31T08:20:26;97801.53;;;7.82;88.31
22020;BME280;51298;53.362;-1.518;2023-10-31T08:23:21;97805.47;;;7.78;88.84
22020;BME280;51298;53.362;-1.518;2023-10-31T08:26:11;97805.81;;;7.75;89.06
22020;BME280;51298;53.362;-1.518;2023-10-31T08:29:01;97805.59;;;7.85;89.11
22020;BME280;51298;53.362;-1.518;2023-10-31T08:31:51;97807.91;;;7.94;88.57
22020;BME280;51298;53.362;-1.518;2023-10-31T08:34:41;97802.78;;;7.86;88.97
22020;BME280;51298;53.362;-1.518;2023-10-31T08:37:30;97809.97;;;7.84;89.01
22020;BME280;51298;53.362;-1.518;2023-10-31T08:40:19;97814.00;;;8.01;88.83
22020;BME280;51298;53.362;-1.518;2023-10-31T08:43:08;97812.47;;;8.07;88.40
22020;BME280;51298;53.362;-1.518;2023-10-31T08:45:58;97812.47;;;8.07;88.71
22020;BME280;51298;53.362;-1.518;2023-10-31T08:48:47;97809.16;;;7.98;88.98
22020;BME280;51298;53.362;-1.518;2023-10-31T08:51:36;97812.41;;;8.15;88.20
22020;BME280;51298;53.362;-1.518;2023-10-31T08:54:25;97813.81;;;8.18;88.05
22020;BME280;51298;53.362;-1.518;2023-10-31T08:57:14;97824.22;;;8.18;88.28
22020;BME280;51298;53.362;-1.518;2023-10-31T09:00:03;97820.66;;;8.19;87.46
22020;BME280;51298;53.362;-1.518;2023-10-31T09:02:54;97824.97;;;8.12;88.25
22020;BME280;51298;53.362;-1.518;2023-10-31T09:05:43;97827.00;;;8.16;88.14
22020;BME280;51298;53.362;-1.518;2023-10-31T09:08:33;97816.06;;;8.21;87.50
22020;BME280;51298;53.362;-1.518;2023-10-31T09:11:23;97815.63;;;8.17;87.42
22020;BME280;51298;53.362;-1.518;2023-10-31T09:14:12;97816.50;;;8.10;88.05
22020;BME280;51298;53.362;-1.518;2023-10-31T09:17:01;97812.03;;;8.18;88.44
22020;BME280;51298;53.362;-1.518;2023-10-31T09:19:52;97802.88;;;8.22;88.69
22020;BME280;51298;53.362;-1.518;2023-10-31T09:22:42;97812.56;;;8.28;88.37
22020;BME280;51298;53.362;-1.518;2023-10-31T09:25:34;97814.94;;;8.38;88.21
22020;BME280;51298;53.362;-1.518;2023-10-31T09:28:23;97814.25;;;8.36;88.44
22020;BME280;51298;53.362;-1.518;2023-10-31T09:31:13;97813.81;;;8.47;88.43
22020;BME280;51298;53.362;-1.518;2023-10-31T09:34:02;97809.75;;;8.60;88.35
22020;BME280;51298;53.362;-1.518;2023-10-31T09:36:56;97815.28;;;8.71;87.88
22020;BME280;51298;53.362;-1.518;2023-10-31T09:39:45;97810.00;;;8.65;87.41
22020;BME280;51298;53.362;-1.518;2023-10-31T09:42:34;97821.78;;;8.61;87.62
22020;BME280;51298;53.362;-1.518;2023-10-31T09:45:23;97819.75;;;8.41;88.01
22020;BME280;51298;53.362;-1.518;2023-10-31T09:48:12;97814.97;;;8.60;88.08
22020;BME280;51298;53.362;-1.518;2023-10-31T09:51:02;97822.06;;;8.66;87.46
22020;BME280;51298;53.362;-1.518;2023-10-31T09:53:51;97814.63;;;8.48;87.36
22020;BME280;51298;53.362;-1.518;2023-10-31T09:56:43;97816.13;;;8.57;87.67
22020;BME280;51298;53.362;-1.518;2023-10-31T09:59:32;97820.19;;;8.45;88.36
22020;BME280;51298;53.362;-1.518;2023-10-31T10:02:21;97816.56;;;8.61;87.92
22020;BME280;51298;53.362;-1.518;2023-10-31T10:05:10;97815.97;;;8.59;88.00
22020;BME280;51298;53.362;-1.518;2023-10-31T10:08:00;97820.53;;;8.56;88.50
22020;BME280;51298;53.362;-1.518;2023-10-31T10:10:50;97823.31;;;8.70;88.31
22020;BME280;51298;53.362;-1.518;2023-10-31T10:13:39;97828.22;;;8.65;87.95
22020;BME280;51298;53.362;-1.518;2023-10-31T10:16:35;97823.94;;;8.57;88.10
22020;BME280;51298;53.362;-1.518;2023-10-31T10:19:24;97830.22;;;8.63;88.06
22020;BME280;51298;53.362;-1.518;2023-10-31T10:22:13;97829.88;;;8.87;87.73
22020;BME280;51298;53.362;-1.518;2023-10-31T10:25:04;97817.63;;;8.81;87.13
22020;BME280;51298;53.362;-1.518;2023-10-31T10:27:54;97822.34;;;8.92;86.74
22020;BME280;51298;53.362;-1.518;2023-10-31T10:30:43;97829.19;;;8.78;86.87
22020;BME280;51298;53.362;-1.518;2023-10-31T10:33:33;97829.00;;;8.80;87.20
22020;BME280;51298;53.362;-1.518;2023-10-31T10:36:23;97834.59;;;8.77;88.08
22020;BME280;51298;53.362;-1.518;2023-10-31T10:39:16;97824.69;;;8.87;87.78
22020;BME280;51298;53.362;-1.518;2023-10-31T10:42:09;97836.41;;;8.98;87.17
22020;BME280;51298;53.362;-1.518;2023-10-31T10:45:01;97830.31;;;8.91;87.36
22020;BME280;51298;53.362;-1.518;2023-10-31T10:47:51;97828.34;;;8.93;87.33
22020;BME280;51298;53.362;-1.518;2023-10-31T10:50:45;97835.25;;;9.00;87.58
22020;BME280;51298;53.362;-1.518;2023-10-31T10:53:35;97843.00;;;8.79;87.46
22020;BME280;51298;53.362;-1.518;2023-10-31T10:56:30;97834.97;;;8.95;87.31
22020;BME280;51298;53.362;-1.518;2023-10-31T10:59:26;97843.47;;;8.83;87.71
22020;BME280;51298;53.362;-1.518;2023-10-31T11:02:19;97844.81;;;8.78;87.78
22020;BME280;51298;53.362;-1.518;2023-10-31T11:05:09;97844.81;;;8.78;87.78
22020;BME280;51298;53.362;-1.518;2023-10-31T11:07:58;97831.13;;;8.91;87.94
22020;BME280;51298;53.362;-1.518;2023-10-31T11:10:49;97832.81;;;8.99;87.19
22020;BME280;51298;53.362;-1.518;2023-10-31T11:13:40;97829.59;;;8.97;87.20
22020;BME280;51298;53.362;-1.518;2023-10-31T11:16:30;97829.16;;;8.93;87.81
22020;BME280;51298;53.362;-1.518;2023-10-31T11:19:22;97823.38;;;8.98;87.36
22020;BME280;51298;53.362;-1.518;2023-10-31T11:22:13;97818.38;;;8.96;87.66
22020;BME280;51298;53.362;-1.518;2023-10-31T11:25:02;97831.84;;;9.00;87.20
22020;BME280;51298;53.362;-1.518;2023-10-31T11:27:51;97825.00;;;8.99;87.67
22020;BME280;51298;53.362;-1.518;2023-10-31T11:30:40;97826.16;;;9.11;87.64
22020;BME280;51298;53.362;-1.518;2023-10-31T11:33:30;97827.75;;;9.12;87.23
22020;BME280;51298;53.362;-1.518;2023-10-31T11:36:20;97832.63;;;9.22;87.41
22020;BME280;51298;53.362;-1.518;2023-10-31T11:39:10;97827.81;;;9.19;87.22
22020;BME280;51298;53.362;-1.518;2023-10-31T11:42:00;97822.22;;;9.22;87.70
22020;BME280;51298;53.362;-1.518;2023-10-31T11:44:56;97828.28;;;9.50;87.36
22020;BME280;51298;53.362;-1.518;2023-10-31T11:47:49;97829.03;;;9.44;86.72
22020;BME280;51298;53.362;-1.518;2023-10-31T11:50:39;97828.78;;;9.39;87.36
22020;BME280;51298;53.362;-1.518;2023-10-31T11:53:28;97836.34;;;9.56;86.53
22020;BME280;51298;53.362;-1.518;2023-10-31T11:56:17;97836.78;;;9.59;86.93
22020;BME280;51298;53.362;-1.518;2023-10-31T11:59:06;97842.47;;;9.69;86.74
22020;BME280;51298;53.362;-1.518;2023-10-31T12:01:56;97841.03;;;9.67;85.59
22020;BME280;51298;53.362;-1.518;2023-10-31T12:04:45;97838.50;;;9.52;86.32
22020;BME280;51298;53.362;-1.518;2023-10-31T12:07:49;97847.56;;;9.56;86.54
22020;BME280;51298;53.362;-1.518;2023-10-31T12:10:38;97844.38;;;9.61;86.67
22020;BME280;51298;53.362;-1.518;2023-10-31T12:13:27;97843.78;;;9.59;86.86
22020;BME280;51298;53.362;-1.518;2023-10-31T12:16:17;97835.75;;;9.53;86.42
22020;BME280;51298;53.362;-1.518;2023-10-31T12:19:07;97843.66;;;9.67;86.38
22020;BME280;51298;53.362;-1.518;2023-10-31T12:21:56;97849.59;;;9.61;86.42
22020;BME280;51298;53.362;-1.518;2023-10-31T12:24:45;97852.66;;;9.64;86.10
22020;BME280;51298;53.362;-1.518;2023-10-31T12:27:41;97847.56;;;9.56;86.03
22020;BME280;51298;53.362;-1.518;2023-10-31T12:30:32;97843.22;;;9.63;85.96
22020;BME280;51298;53.362;-1.518;2023-10-31T12:33:21;97849.88;;;9.66;85.81
22020;BME280;51298;53.362;-1.518;2023-10-31T12:36:10;97847.69;;;9.48;86.47
22020;BME280;51298;53.362;-1.518;2023-10-31T12:39:00;97851.91;;;9.49;86.98
22020;BME280;51298;53.362;-1.518;2023-10-31T12:41:49;97843.66;;;9.45;87.23
22020;BME280;51298;53.362;-1.518;2023-10-31T12:44:39;97851.53;;;9.52;86.54
22020;BME280;51298;53.362;-1.518;2023-10-31T12:47:29;97844.97;;;9.56;86.64
22020;BME280;51298;53.362;-1.518;2023-10-31T12:50:18;97853.03;;;9.61;86.91
22020;BME280;51298;53.362;-1.518;2023-10-31T12:53:07;97852.84;;;9.63;86.97
22020;BME280;51298;53.362;-1.518;2023-10-31T12:55:56;97853.56;;;9.78;86.55
22020;BME280;51298;53.362;-1.518;2023-10-31T12:58:47;97853.50;;;9.71;86.20
22020;BME280;51298;53.362;-1.518;2023-10-31T13:01:36;97851.41;;;9.60;86.42
22020;BME280;51298;53.362;-1.518;2023-10-31T13:04:26;97860.97;;;9.74;86.11
22020;BME280;51298;53.362;-1.518;2023-10-31T13:07:16;97858.78;;;9.78;85.25
22020;BME280;51298;53.362;-1.518;2023-10-31T13:10:15;97849.22;;;9.85;84.82
22020;BME280;51298;53.362;-1.518;2023-10-31T13:13:04;97854.06;;;9.88;85.28
22020;BME280;51298;53.362;-1.518;2023-10-31T13:15:54;97860.00;;;9.82;85.94
22020;BME280;51298;53.362;-1.518;2023-10-31T13:18:43;97858.25;;;9.89;86.11
22020;BME280;51298;53.362;-1.518;2023-10-31T13:21:32;97862.75;;;10.02;86.13
22020;BME280;51298;53.362;-1.518;2023-10-31T13:24:21;97855.03;;;10.15;85.49
22020;BME280;51298;53.362;-1.518;2023-10-31T13:27:10;97858.22;;;10.17;85.38
22020;BME280;51298;53.362;-1.518;2023-10-31T13:30:04;97856.34;;;10.05;85.04
22020;BME280;51298;53.362;-1.518;2023-10-31T13:32:54;97860.28;;;9.94;84.79
22020;BME280;51298;53.362;-1.518;2023-10-31T13:35:43;97861.00;;;9.81;85.54
22020;BME280;51298;53.362;-1.518;2023-10-31T13:38:32;97853.09;;;9.96;85.50
22020;BME280;51298;53.362;-1.518;2023-10-31T13:41:21;97850.44;;;9.89;85.86
22020;BME280;51298;53.362;-1.518;2023-10-31T13:44:11;97855.72;;;10.02;85.67
22020;BME280;51298;53.362;-1.518;2023-10-31T13:47:00;97848.63;;;9.90;85.46
22020;BME280;51298;53.362;-1.518;2023-10-31T13:49:49;97841.22;;;9.93;86.03
22020;BME280;51298;53.362;-1.518;2023-10-31T13:52:38;97846.41;;;9.87;85.58
22020;BME280;51298;53.362;-1.518;2023-10-31T13:55:28;97856.34;;;10.05;85.56
22020;BME280;51298;53.362;-1.518;2023-10-31T13:58:17;97852.28;;;9.95;85.04
22020;BME280;51298;53.362;-1.518;2023-10-31T14:01:06;97847.88;;;9.96;85.29
22020;BME280;51298;53.362;-1.518;2023-10-31T14:03:55;97855.72;;;9.96;85.69
22020;BME280;51298;53.362;-1.518;2023-10-31T14:06:45;97852.81;;;9.84;85.57
22020;BME280;51298;53.362;-1.518;2023-10-31T14:09:35;97855.34;;;10.06;84.60
22020;BME280;51298;53.362;-1.518;2023-10-31T14:12:24;97847.25;;;9.94;85.14
22020;BME280;51298;53.362;-1.518;2023-10-31T14:15:14;97849.38;;;9.84;85.58
22020;BME280;51298;53.362;-1.518;2023-10-31T14:18:03;97846.78;;;9.84;84.93
22020;BME280;51298;53.362;-1.518;2023-10-31T14:20:52;97848.66;;;9.68;86.05
22020;BME280;51298;53.362;-1.518;2023-10-31T14:23:40;97849.88;;;9.66;86.52
22020;BME280;51298;53.362;-1.518;2023-10-31T14:26:30;97853.47;;;9.65;86.82
22020;BME280;51298;53.362;-1.518;2023-10-31T14:29:19;97850.53;;;9.74;86.82
22020;BME280;51298;53.362;-1.518;2023-10-31T14:32:08;97862.09;;;9.65;86.97
22020;BME280;51298;53.362;-1.518;2023-10-31T14:34:57;97856.69;;;9.67;87.31
22020;BME280;51298;53.362;-1.518;2023-10-31T14:37:46;97845.94;;;9.76;87.15
22020;BME280;51298;53.362;-1.518;2023-10-31T14:40:36;97849.25;;;9.92;86.71
22020;BME280;51298;53.362;-1.518;2023-10-31T14:43:25;97854.31;;;9.72;86.05
22020;BME280;51298;53.362;-1.518;2023-10-31T14:46:14;97860.72;;;9.69;86.24
22020;BME280;51298;53.362;-1.518;2023-10-31T14:49:03;97857.84;;;9.64;86.99
22020;BME280;51298;53.362;-1.518;2023-10-31T14:51:52;97854.28;;;9.65;86.76
22020;BME280;51298;53.362;-1.518;2023-10-31T14:54:41;97853.22;;;9.60;87.27
22020;BME280;51298;53.362;-1.518;2023-10-31T14:57:30;97851.69;;;9.72;87.04
22020;BME280;51298;53.362;-1.518;2023-10-31T15:00:21;97863.38;;;9.76;86.89
22020;BME280;51298;53.362;-1.518;2023-10-31T15:03:10;97857.69;;;9.66;86.37